createdAt,value
2023-12-19T00:01:57.582Z,94.04
2023-12-19T00:04:24.431Z,94.41
2023-12-19T00:06:50.996Z,92.34
2023-12-19T00:09:17.555Z,90.49
2023-12-19T00:11:44.037Z,92.13
2023-12-19T00:14:10.612Z,91.54
2023-12-19T00:16:37.960Z,95.10
2023-12-19T00:19:04.569Z,94.85
2023-12-19T00:21:31.090Z,96.10
2023-12-19T00:23:57.532Z,97.86
2023-12-19T00:26:24.118Z,96.07
2023-12-19T00:28:50.544Z,95.93
2023-12-19T00:31:22.141Z,92.98
2023-12-19T00:33:48.967Z,95.65
2023-12-19T00:36:22.924Z,92.80
2023-12-19T00:38:50.028Z,96.57
2023-12-19T00:41:17.476Z,96.63
2023-12-19T00:43:46.725Z,95.08
2023-12-19T00:46:13.853Z,94.02
2023-12-19T00:48:40.859Z,93.45
2023-12-19T00:51:15.319Z,95.84
2023-12-19T00:53:42.495Z,97.42
2023-12-19T00:56:10.425Z,94.65
2023-12-19T00:58:37.949Z,96.47
2023-12-19T01:01:08.311Z,97.91
2023-12-19T01:03:36.106Z,95.90
2023-12-19T01:06:04.199Z,95.33
2023-12-19T01:08:31.110Z,97.60
2023-12-19T01:10:57.591Z,96.81
2023-12-19T01:13:24.079Z,98.82
2023-12-19T01:15:51.123Z,99.94
2023-12-19T01:18:17.761Z,98.75
2023-12-19T01:20:49.003Z,96.64
2023-12-19T01:23:18.989Z,94.50
2023-12-19T01:25:45.461Z,97.40
2023-12-19T01:28:15.810Z,96.20
2023-12-19T01:30:43.715Z,97.12
2023-12-19T01:33:10.959Z,95.64
2023-12-19T01:35:37.870Z,97.35
2023-12-19T01:38:04.870Z,97.26
2023-12-19T01:40:32.716Z,97.44
2023-12-19T01:43:00.341Z,97.06
2023-12-19T01:45:28.593Z,96.85
2023-12-19T01:47:55.723Z,98.51
2023-12-19T01:50:22.537Z,98.54
2023-12-19T01:52:55.214Z,98.00
2023-12-19T01:55:24.835Z,97.33
2023-12-19T01:57:51.632Z,98.01
2023-12-19T02:00:18.178Z,97.28
2023-12-19T02:02:51.438Z,95.25
2023-12-19T02:05:18.816Z,97.75
2023-12-19T02:07:45.534Z,98.97
2023-12-19T02:10:13.062Z,97.14
2023-12-19T02:12:39.872Z,96.03
2023-12-19T02:15:08.028Z,96.92
2023-12-19T02:17:34.514Z,97.10
2023-12-19T02:20:03.653Z,95.35
2023-12-19T02:22:31.759Z,95.49
2023-12-19T02:24:59.452Z,95.81
2023-12-19T02:27:26.835Z,94.87
2023-12-19T02:29:53.533Z,94.83
2023-12-19T02:32:20.046Z,96.91
2023-12-19T02:34:47.120Z,95.24
2023-12-19T02:37:13.825Z,98.18
2023-12-19T02:39:40.386Z,95.84
2023-12-19T02:42:06.841Z,94.76
2023-12-19T02:44:33.359Z,96.11
2023-12-19T02:47:00.006Z,94.47
2023-12-19T02:49:26.577Z,99.21
2023-12-19T02:51:53.558Z,96.69
2023-12-19T02:54:20.596Z,97.91
2023-12-19T02:56:47.070Z,96.95
2023-12-19T02:59:13.665Z,97.77
2023-12-19T03:01:40.155Z,96.58
2023-12-19T03:04:06.828Z,96.72
2023-12-19T03:06:33.377Z,96.50
2023-12-19T03:08:59.800Z,98.54
2023-12-19T03:11:26.783Z,97.62
2023-12-19T03:13:53.215Z,96.10
2023-12-19T03:16:19.720Z,98.24
2023-12-19T03:18:46.225Z,97.86
2023-12-19T03:21:12.989Z,98.85
2023-12-19T03:23:39.511Z,100.00
2023-12-19T03:26:05.982Z,99.16
2023-12-19T03:28:32.468Z,100.00
2023-12-19T03:30:59.449Z,99.21
2023-12-19T03:33:26.220Z,100.00
2023-12-19T03:35:52.718Z,100.00
2023-12-19T03:38:19.156Z,100.00
2023-12-19T03:40:45.564Z,100.00
2023-12-19T03:43:12.946Z,100.00
2023-12-19T03:45:39.518Z,100.00
2023-12-19T03:48:06.651Z,100.00
2023-12-19T03:50:33.289Z,100.00
2023-12-19T03:52:59.691Z,100.00
2023-12-19T03:55:26.127Z,100.00
2023-12-19T03:57:52.616Z,100.00
2023-12-19T04:00:19.285Z,100.00
2023-12-19T04:02:46.241Z,100.00
2023-12-19T04:05:12.953Z,100.00
2023-12-19T04:07:39.413Z,100.00
2023-12-19T04:10:06.394Z,100.00
2023-12-19T04:12:33.082Z,100.00
2023-12-19T04:14:59.522Z,100.00
2023-12-19T04:17:26.093Z,100.00
2023-12-19T04:19:52.560Z,100.00
2023-12-19T04:22:19.077Z,100.00
2023-12-19T04:24:45.529Z,100.00
2023-12-19T04:27:11.971Z,100.00
2023-12-19T04:29:40.077Z,100.00
2023-12-19T04:32:07.179Z,100.00
2023-12-19T04:34:33.722Z,100.00
2023-12-19T04:37:01.043Z,100.00
2023-12-19T04:39:27.581Z,100.00
2023-12-19T04:41:54.085Z,100.00
2023-12-19T04:44:20.532Z,100.00
2023-12-19T04:46:46.910Z,100.00
2023-12-19T04:49:13.730Z,100.00
2023-12-19T04:51:40.296Z,100.00
2023-12-19T04:54:09.927Z,100.00
2023-12-19T04:56:37.167Z,100.00
2023-12-19T04:59:03.636Z,100.00
2023-12-19T05:01:30.164Z,100.00
2023-12-19T05:03:56.762Z,100.00
2023-12-19T05:06:23.296Z,100.00
2023-12-19T05:08:50.521Z,99.61
2023-12-19T05:11:17.144Z,100.00
2023-12-19T05:13:43.633Z,99.89
2023-12-19T05:16:14.368Z,100.00
2023-12-19T05:18:44.548Z,100.00
2023-12-19T05:21:11.926Z,100.00
2023-12-19T05:23:40.066Z,100.00
2023-12-19T05:26:08.070Z,98.77
2023-12-19T05:28:43.446Z,100.00
2023-12-19T05:31:11.032Z,100.00
2023-12-19T05:33:38.194Z,99.97
2023-12-19T05:36:05.191Z,100.00
2023-12-19T05:38:33.714Z,100.00
2023-12-19T05:41:00.483Z,100.00
2023-12-19T05:43:27.034Z,100.00
2023-12-19T05:45:53.675Z,100.00
2023-12-19T05:48:24.000Z,100.00
2023-12-19T05:50:50.728Z,100.00
2023-12-19T05:53:17.368Z,100.00
2023-12-19T05:55:45.239Z,100.00
2023-12-19T05:58:12.190Z,100.00
2023-12-19T06:00:50.816Z,100.00
2023-12-19T06:03:17.664Z,99.33
2023-12-19T06:05:44.207Z,100.00
2023-12-19T06:08:10.691Z,100.00
2023-12-19T06:10:37.139Z,99.14
2023-12-19T06:13:03.830Z,100.00
2023-12-19T06:15:30.608Z,99.56
2023-12-19T06:17:57.184Z,99.16
2023-12-19T06:20:23.632Z,100.00
2023-12-19T06:22:50.409Z,100.00
2023-12-19T06:25:16.899Z,100.00
2023-12-19T06:27:45.193Z,100.00
2023-12-19T06:30:22.504Z,100.00
2023-12-19T06:32:54.311Z,100.00
2023-12-19T06:35:20.788Z,99.87
2023-12-19T06:37:47.273Z,100.00
2023-12-19T06:40:13.801Z,100.00
2023-12-19T06:42:40.596Z,99.92
2023-12-19T06:45:08.003Z,100.00
2023-12-19T06:47:36.846Z,99.06
2023-12-19T06:50:04.930Z,98.58
2023-12-19T06:52:31.647Z,98.80
2023-12-19T06:55:02.010Z,99.56
2023-12-19T06:57:28.651Z,100.00
2023-12-19T06:59:55.352Z,98.43
2023-12-19T07:02:22.123Z,96.84
2023-12-19T07:04:48.584Z,99.75
2023-12-19T07:07:15.326Z,97.87
2023-12-19T07:09:41.912Z,98.54
2023-12-19T07:12:08.827Z,99.21
2023-12-19T07:14:35.438Z,98.42
2023-12-19T07:17:02.571Z,97.39
2023-12-19T07:19:29.238Z,97.20
2023-12-19T07:21:55.907Z,96.83
2023-12-19T07:24:22.612Z,94.40
2023-12-19T07:26:49.008Z,95.03
2023-12-19T07:29:15.482Z,94.73
2023-12-19T07:31:41.976Z,97.92
2023-12-19T07:34:09.063Z,99.07
2023-12-19T07:36:35.872Z,96.60
2023-12-19T07:39:04.434Z,94.04
2023-12-19T07:41:32.588Z,96.85
2023-12-19T07:44:00.198Z,94.24
2023-12-19T07:46:27.072Z,96.52
2023-12-19T07:48:53.759Z,97.83
2023-12-19T07:51:25.359Z,96.75
2023-12-19T07:53:53.949Z,95.59
2023-12-19T07:56:20.670Z,95.86
2023-12-19T07:58:47.572Z,97.68
2023-12-19T08:01:14.737Z,95.44
2023-12-19T08:03:43.959Z,96.18
2023-12-19T08:06:11.203Z,94.53
2023-12-19T08:08:38.630Z,96.31
2023-12-19T08:11:05.165Z,96.45
2023-12-19T08:13:31.709Z,94.69
2023-12-19T08:15:58.415Z,93.85
2023-12-19T08:18:25.107Z,93.99
2023-12-19T08:20:51.617Z,97.66
2023-12-19T08:23:18.124Z,96.03
2023-12-19T08:25:44.903Z,96.17
2023-12-19T08:28:12.125Z,93.03
2023-12-19T08:30:40.711Z,93.18
2023-12-19T08:33:07.376Z,94.50
2023-12-19T08:35:33.928Z,95.51
2023-12-19T08:38:00.440Z,94.81
2023-12-19T08:40:26.933Z,93.46
2023-12-19T08:42:57.322Z,94.70
2023-12-19T08:45:24.337Z,95.54
2023-12-19T08:47:51.805Z,95.41
2023-12-19T08:50:19.227Z,93.09
2023-12-19T08:52:47.334Z,91.82
2023-12-19T08:55:14.174Z,92.69
2023-12-19T08:57:45.854Z,91.99
2023-12-19T09:00:21.454Z,91.98
2023-12-19T09:02:48.893Z,90.70
2023-12-19T09:05:19.423Z,91.41
2023-12-19T09:07:50.195Z,92.98
2023-12-19T09:10:18.070Z,91.89
2023-12-19T09:12:45.286Z,92.57
2023-12-19T09:15:12.264Z,91.87
2023-12-19T09:17:39.066Z,91.91
2023-12-19T09:20:07.130Z,92.44
2023-12-19T09:22:33.765Z,91.59
2023-12-19T09:25:00.543Z,91.52
2023-12-19T09:27:27.167Z,92.86
2023-12-19T09:29:53.942Z,92.74
2023-12-19T09:32:20.653Z,94.10
2023-12-19T09:34:47.994Z,91.75
2023-12-19T09:37:14.644Z,93.64
2023-12-19T09:39:41.147Z,91.97
2023-12-19T09:42:07.993Z,91.54
2023-12-19T09:44:34.494Z,89.89
2023-12-19T09:47:02.026Z,90.71
2023-12-19T09:49:32.831Z,93.54
2023-12-19T09:52:00.551Z,91.46
2023-12-19T09:54:27.320Z,91.97
2023-12-19T09:56:55.182Z,90.73
2023-12-19T09:59:22.362Z,91.90
2023-12-19T10:01:49.244Z,92.08
2023-12-19T10:04:16.067Z,91.17
2023-12-19T10:06:54.884Z,91.82
2023-12-19T10:09:22.525Z,90.24
2023-12-19T10:12:11.660Z,89.82
2023-12-19T10:14:38.453Z,91.15
2023-12-19T10:17:12.680Z,90.22
2023-12-19T10:19:39.873Z,91.26
2023-12-19T10:22:11.502Z,91.23
2023-12-19T10:24:38.476Z,90.24
2023-12-19T10:27:09.411Z,90.76
2023-12-19T10:29:39.954Z,89.41
2023-12-19T10:32:18.438Z,90.49
2023-12-19T10:34:45.812Z,90.39
2023-12-19T10:37:13.934Z,92.14
2023-12-19T10:39:43.649Z,92.49
2023-12-19T10:42:13.083Z,90.98
2023-12-19T10:44:42.936Z,91.32
2023-12-19T10:47:11.651Z,92.32
2023-12-19T10:49:39.256Z,92.90
2023-12-19T10:52:10.749Z,92.17
2023-12-19T10:54:38.487Z,91.51
2023-12-19T10:57:18.859Z,92.91
2023-12-19T10:59:53.935Z,94.81
2023-12-19T11:02:32.612Z,94.61
2023-12-19T11:05:46.612Z,98.17
2023-12-19T11:08:16.959Z,97.14
2023-12-19T11:11:05.551Z,100.00
2023-12-19T11:13:33.922Z,100.00
2023-12-19T11:16:09.918Z,99.51
2023-12-19T11:18:47.428Z,98.79
2023-12-19T11:21:21.975Z,100.00
2023-12-19T11:24:08.837Z,100.00
2023-12-19T11:26:51.393Z,100.00
2023-12-19T11:29:44.767Z,100.00
2023-12-19T11:32:30.097Z,100.00
2023-12-19T11:35:14.093Z,100.00
2023-12-19T11:37:42.881Z,100.00
2023-12-19T11:40:10.706Z,100.00
2023-12-19T11:42:40.727Z,100.00
2023-12-19T11:45:19.764Z,100.00
2023-12-19T11:47:47.573Z,100.00
2023-12-19T11:50:40.592Z,100.00
2023-12-19T11:53:09.941Z,100.00
2023-12-19T11:55:36.475Z,100.00
2023-12-19T11:58:13.251Z,100.00
2023-12-19T12:00:43.536Z,100.00
2023-12-19T12:03:12.515Z,100.00
2023-12-19T12:05:39.006Z,100.00
2023-12-19T12:08:06.236Z,100.00
2023-12-19T12:10:32.808Z,100.00
2023-12-19T12:13:02.919Z,100.00
2023-12-19T12:15:29.457Z,100.00
2023-12-19T12:18:07.011Z,100.00
2023-12-19T12:20:35.508Z,100.00
2023-12-19T12:23:02.696Z,100.00
2023-12-19T12:25:29.517Z,100.00
2023-12-19T12:28:13.253Z,100.00
2023-12-19T12:30:40.484Z,100.00
2023-12-19T12:33:07.980Z,100.00
2023-12-19T12:35:37.064Z,100.00
2023-12-19T12:38:08.544Z,100.00
2023-12-19T12:40:35.421Z,100.00
2023-12-19T12:43:40.856Z,100.00
2023-12-19T12:46:09.807Z,100.00
2023-12-19T12:48:38.316Z,100.00
2023-12-19T12:51:07.958Z,100.00
2023-12-19T12:53:35.920Z,100.00
2023-12-19T12:56:15.405Z,100.00
2023-12-19T12:58:42.970Z,100.00
2023-12-19T13:01:10.504Z,100.00
2023-12-19T13:03:38.343Z,100.00
2023-12-19T13:06:06.270Z,100.00
2023-12-19T13:08:34.551Z,100.00
2023-12-19T13:11:08.712Z,100.00
2023-12-19T13:13:35.930Z,100.00
2023-12-19T13:16:08.150Z,100.00
2023-12-19T13:18:37.215Z,100.00
2023-12-19T13:21:07.661Z,100.00
2023-12-19T13:23:37.299Z,100.00
2023-12-19T13:26:04.057Z,100.00
2023-12-19T13:28:31.364Z,100.00
2023-12-19T13:30:57.949Z,100.00
2023-12-19T13:33:24.948Z,100.00
2023-12-19T13:35:51.680Z,100.00
2023-12-19T13:38:20.024Z,100.00
2023-12-19T13:40:46.728Z,100.00
2023-12-19T13:43:13.894Z,100.00
2023-12-19T13:45:40.504Z,100.00
2023-12-19T13:48:08.118Z,100.00
2023-12-19T13:50:35.519Z,100.00
2023-12-19T13:53:02.924Z,100.00
2023-12-19T13:55:32.791Z,100.00
2023-12-19T13:57:59.253Z,100.00
2023-12-19T14:00:31.590Z,100.00
2023-12-19T14:03:00.222Z,100.00
2023-12-19T14:05:28.518Z,100.00
2023-12-19T14:07:58.428Z,100.00
2023-12-19T14:10:26.109Z,100.00
2023-12-19T14:12:52.885Z,100.00
2023-12-19T14:15:20.949Z,100.00
2023-12-19T14:17:48.164Z,100.00
2023-12-19T14:20:16.195Z,100.00
2023-12-19T14:22:42.927Z,100.00
2023-12-19T14:25:11.104Z,100.00
2023-12-19T14:27:38.633Z,100.00
2023-12-19T14:30:07.878Z,100.00
2023-12-19T14:32:34.426Z,100.00
2023-12-19T14:35:01.892Z,100.00
2023-12-19T14:37:29.149Z,100.00
2023-12-19T14:39:56.761Z,100.00
2023-12-19T14:42:31.080Z,100.00
2023-12-19T14:44:58.259Z,100.00
2023-12-19T14:47:25.380Z,100.00
2023-12-19T14:49:52.003Z,100.00
2023-12-19T14:52:21.358Z,100.00
2023-12-19T14:54:48.132Z,100.00
2023-12-19T14:57:14.807Z,100.00
2023-12-19T14:59:41.451Z,100.00
2023-12-19T15:02:08.232Z,100.00
2023-12-19T15:04:37.970Z,100.00
2023-12-19T15:07:05.858Z,100.00
2023-12-19T15:09:32.603Z,100.00
2023-12-19T15:12:01.464Z,100.00
2023-12-19T15:14:29.187Z,100.00
2023-12-19T15:16:55.662Z,100.00
2023-12-19T15:19:22.537Z,100.00
2023-12-19T15:21:49.249Z,100.00
2023-12-19T15:24:18.267Z,100.00
2023-12-19T15:26:44.650Z,100.00
2023-12-19T15:29:13.993Z,100.00
2023-12-19T15:31:47.794Z,100.00
2023-12-19T15:34:14.716Z,100.00
2023-12-19T15:36:41.269Z,100.00
2023-12-19T15:39:08.183Z,100.00
2023-12-19T15:41:35.133Z,100.00
2023-12-19T15:44:08.520Z,100.00
2023-12-19T15:46:41.139Z,100.00
2023-12-19T15:49:14.172Z,100.00
2023-12-19T15:51:41.764Z,100.00
2023-12-19T15:54:08.422Z,100.00
2023-12-19T15:56:36.082Z,100.00
2023-12-19T15:59:20.678Z,100.00
2023-12-19T16:01:57.436Z,100.00
2023-12-19T16:07:26.416Z,100.00
2023-12-19T16:10:19.784Z,100.00
2023-12-19T16:12:47.511Z,100.00
2023-12-19T16:15:15.063Z,100.00
2023-12-19T16:17:41.601Z,100.00
2023-12-19T16:20:08.679Z,100.00
2023-12-19T16:22:37.747Z,100.00
2023-12-19T16:25:07.086Z,100.00
2023-12-19T16:27:36.301Z,100.00
2023-12-19T16:30:04.064Z,100.00
2023-12-19T16:32:40.164Z,100.00
2023-12-19T16:35:07.050Z,100.00
2023-12-19T16:37:36.785Z,100.00
2023-12-19T16:40:04.779Z,100.00
2023-12-19T16:42:48.851Z,100.00
2023-12-19T16:45:17.440Z,100.00
2023-12-19T16:47:48.767Z,100.00
2023-12-19T16:50:16.203Z,100.00
2023-12-19T16:52:43.813Z,100.00
2023-12-19T16:55:11.270Z,100.00
2023-12-19T16:57:37.950Z,100.00
2023-12-19T17:00:06.636Z,100.00
2023-12-19T17:02:33.677Z,100.00
2023-12-19T17:05:00.200Z,100.00
2023-12-19T17:07:26.845Z,100.00
2023-12-19T17:09:53.301Z,100.00
2023-12-19T17:12:19.786Z,100.00
2023-12-19T17:14:46.270Z,100.00
2023-12-19T17:17:12.739Z,100.00
2023-12-19T17:19:39.242Z,100.00
2023-12-19T17:22:06.120Z,100.00
2023-12-19T17:24:38.334Z,100.00
2023-12-19T17:27:07.434Z,100.00
2023-12-19T17:29:33.927Z,100.00
2023-12-19T17:32:03.811Z,100.00
2023-12-19T17:34:33.411Z,100.00
2023-12-19T17:36:59.997Z,100.00
2023-12-19T17:39:30.592Z,100.00
2023-12-19T17:41:56.989Z,100.00
2023-12-19T17:44:23.391Z,100.00
2023-12-19T17:46:51.567Z,100.00
2023-12-19T17:49:18.300Z,100.00
2023-12-19T17:51:45.065Z,100.00
2023-12-19T17:54:11.688Z,100.00
2023-12-19T17:56:38.194Z,100.00
2023-12-19T17:59:07.787Z,100.00
2023-12-19T18:01:34.367Z,100.00
2023-12-19T18:04:00.882Z,100.00
2023-12-19T18:06:27.360Z,100.00
2023-12-19T18:08:53.818Z,100.00
2023-12-19T18:11:20.381Z,100.00
2023-12-19T18:13:46.872Z,100.00
2023-12-19T18:16:13.483Z,100.00
2023-12-19T18:18:40.258Z,100.00
2023-12-19T18:21:08.871Z,100.00
2023-12-19T18:23:37.708Z,100.00
2023-12-19T18:26:07.268Z,100.00
2023-12-19T18:28:36.954Z,100.00
2023-12-19T18:31:03.565Z,100.00
2023-12-19T18:33:33.166Z,100.00
2023-12-19T18:36:01.413Z,100.00
2023-12-19T18:38:27.882Z,100.00
2023-12-19T18:40:54.305Z,100.00
2023-12-19T18:43:23.747Z,100.00
2023-12-19T18:45:50.345Z,100.00
2023-12-19T18:48:16.976Z,100.00
2023-12-19T18:50:43.700Z,100.00
2023-12-19T18:53:10.489Z,100.00
2023-12-19T18:55:37.801Z,100.00
2023-12-19T18:58:04.839Z,100.00
2023-12-19T19:00:31.562Z,100.00
2023-12-19T19:02:58.270Z,100.00
2023-12-19T19:05:24.859Z,100.00
2023-12-19T19:07:54.860Z,100.00
2023-12-19T19:10:21.657Z,100.00
2023-12-19T19:12:54.401Z,100.00
2023-12-19T19:15:21.681Z,100.00
2023-12-19T19:17:48.282Z,100.00
2023-12-19T19:20:42.188Z,100.00
2023-12-19T19:23:16.628Z,100.00
2023-12-19T19:25:44.257Z,100.00
2023-12-19T19:28:14.588Z,100.00
2023-12-19T19:30:42.840Z,100.00
2023-12-19T19:33:09.598Z,100.00
2023-12-19T19:35:36.710Z,100.00
2023-12-19T19:38:05.230Z,100.00
2023-12-19T19:40:38.916Z,100.00
2023-12-19T19:43:10.740Z,100.00
2023-12-19T19:45:37.623Z,100.00
2023-12-19T19:48:31.299Z,100.00
2023-12-19T19:50:58.015Z,100.00
2023-12-19T19:53:24.639Z,100.00
2023-12-19T19:55:51.219Z,100.00
2023-12-19T19:58:17.820Z,100.00
2023-12-19T20:00:53.810Z,100.00
2023-12-19T20:03:20.708Z,100.00
2023-12-19T20:05:47.276Z,100.00
2023-12-19T20:08:13.820Z,100.00
2023-12-19T20:10:40.586Z,100.00
2023-12-19T20:13:07.472Z,100.00
2023-12-19T20:15:34.461Z,100.00
2023-12-19T20:18:02.445Z,100.00
2023-12-19T20:20:29.687Z,100.00
2023-12-19T20:22:56.106Z,100.00
2023-12-19T20:25:22.755Z,100.00
2023-12-19T20:27:50.044Z,100.00
2023-12-19T20:30:19.037Z,100.00
2023-12-19T20:32:46.529Z,100.00
2023-12-19T20:35:13.801Z,100.00
2023-12-19T20:37:42.753Z,100.00
2023-12-19T20:40:11.840Z,100.00
2023-12-19T20:42:39.399Z,100.00
2023-12-19T20:45:06.542Z,100.00
2023-12-19T20:47:33.484Z,100.00
2023-12-19T20:50:00.328Z,100.00
2023-12-19T20:52:27.104Z,100.00
2023-12-19T20:54:54.069Z,100.00
2023-12-19T20:57:20.744Z,100.00
2023-12-19T20:59:47.389Z,100.00
2023-12-19T21:02:14.889Z,100.00
2023-12-19T21:04:44.589Z,100.00
2023-12-19T21:07:18.093Z,100.00
2023-12-19T21:09:48.258Z,100.00
2023-12-19T21:12:14.975Z,100.00
2023-12-19T21:14:41.760Z,100.00
2023-12-19T21:17:09.968Z,100.00
2023-12-19T21:20:08.702Z,100.00
2023-12-19T21:22:39.840Z,100.00
2023-12-19T21:25:06.882Z,100.00
2023-12-19T21:30:28.841Z,100.00
2023-12-19T21:32:55.503Z,100.00
2023-12-19T21:35:22.781Z,100.00
2023-12-19T21:37:49.304Z,100.00
2023-12-19T21:40:15.911Z,100.00
2023-12-19T21:42:43.361Z,100.00
2023-12-19T21:45:10.535Z,100.00
2023-12-19T21:47:37.082Z,100.00
2023-12-19T21:50:04.074Z,100.00
2023-12-19T21:52:30.754Z,100.00
2023-12-19T21:54:58.222Z,100.00
2023-12-19T21:57:25.294Z,100.00
2023-12-19T21:59:51.739Z,100.00
2023-12-19T22:02:18.997Z,100.00
2023-12-19T22:04:45.724Z,100.00
2023-12-19T22:07:12.541Z,100.00
2023-12-19T22:09:41.019Z,100.00
2023-12-19T22:12:12.039Z,100.00
2023-12-19T22:14:38.496Z,100.00
2023-12-19T22:17:05.102Z,100.00
2023-12-19T22:19:31.550Z,100.00
2023-12-19T22:21:58.110Z,100.00
2023-12-19T22:24:24.555Z,100.00
2023-12-19T22:26:51.160Z,100.00
2023-12-19T22:29:19.615Z,100.00
2023-12-19T22:31:46.199Z,100.00
2023-12-19T22:34:13.971Z,100.00
2023-12-19T22:36:40.542Z,100.00
2023-12-19T22:39:07.000Z,100.00
2023-12-19T22:41:34.119Z,100.00
2023-12-19T22:44:00.592Z,100.00
2023-12-19T22:46:27.097Z,100.00
2023-12-19T22:48:53.531Z,100.00
2023-12-19T22:51:20.033Z,100.00
2023-12-19T22:53:50.522Z,100.00
2023-12-19T22:56:18.734Z,100.00
2023-12-19T22:58:45.726Z,100.00
2023-12-19T23:01:21.720Z,100.00
2023-12-19T23:03:49.387Z,100.00
2023-12-19T23:06:18.132Z,100.00
2023-12-19T23:08:44.656Z,100.00
2023-12-19T23:11:12.256Z,100.00
2023-12-19T23:13:39.238Z,100.00
2023-12-19T23:16:07.730Z,100.00
2023-12-19T23:18:35.141Z,100.00
2023-12-19T23:21:03.379Z,100.00
2023-12-19T23:23:30.416Z,100.00
2023-12-19T23:25:56.845Z,100.00
2023-12-19T23:28:23.228Z,100.00
2023-12-19T23:30:49.760Z,100.00
2023-12-19T23:33:16.287Z,100.00
2023-12-19T23:35:42.831Z,100.00
2023-12-19T23:38:09.309Z,100.00
2023-12-19T23:40:35.819Z,100.00
2023-12-19T23:43:02.297Z,100.00
2023-12-19T23:45:28.767Z,100.00
2023-12-19T23:47:55.257Z,100.00
2023-12-19T23:50:21.787Z,100.00
2023-12-19T23:52:48.175Z,100.00
2023-12-19T23:55:15.027Z,100.00
2023-12-19T23:57:41.749Z,100.00
